sensor_id;sensor_type;location;lat;lon;timestamp;pressure;altitude;pressure_sealevel;temperature;humidity
46718;BME280;32448;44.960;-0.698;2022-11-21T00:01:34;101389.97;;;7.69;100.00
46718;BME280;32448;44.960;-0.698;2022-11-21T00:04:01;101373.13;;;7.59;100.00
46718;BME280;32448;44.960;-0.698;2022-11-21T00:06:29;101366.06;;;7.57;100.00
46718;BME280;32448;44.960;-0.698;2022-11-21T00:08:56;101366.25;;;7.61;100.00
46718;BME280;32448;44.960;-0.698;2022-11-21T00:11:23;101360.09;;;7.59;100.00
46718;BME280;32448;44.960;-0.698;2022-11-21T00:13:50;101349.78;;;7.62;100.00
46718;BME280;32448;44.960;-0.698;2022-11-21T00:16:17;101338.34;;;7.57;100.00
46718;BME280;32448;44.960;-0.698;2022-11-21T00:18:45;101333.22;;;7.59;100.00
46718;BME280;32448;44.960;-0.698;2022-11-21T00:21:14;101297.69;;;7.37;100.00
46718;BME280;32448;44.960;-0.698;2022-11-21T00:23:42;101316.78;;;7.60;100.00
46718;BME280;32448;44.960;-0.698;2022-11-21T00:26:11;101307.00;;;7.54;100.00
46718;BME280;32448;44.960;-0.698;2022-11-21T00:28:40;101308.91;;;7.58;100.00
46718;BME280;32448;44.960;-0.698;2022-11-21T00:31:08;101308.16;;;7.61;100.00
46718;BME280;32448;44.960;-0.698;2022-11-21T00:33:35;101298.50;;;7.58;100.00
46718;BME280;32448;44.960;-0.698;2022-11-21T00:36:09;101294.88;;;7.55;100.00
46718;BME280;32448;44.960;-0.698;2022-11-21T00:38:37;101304.66;;;7.60;100.00
46718;BME280;32448;44.960;-0.698;2022-11-21T00:41:05;101288.91;;;7.57;100.00
46718;BME280;32448;44.960;-0.698;2022-11-21T00:43:32;101303.09;;;7.65;100.00
46718;BME280;32448;44.960;-0.698;2022-11-21T00:45:59;101294.19;;;7.59;100.00
46718;BME280;32448;44.960;-0.698;2022-11-21T00:48:30;101296.06;;;7.63;100.00
46718;BME280;32448;44.960;-0.698;2022-11-21T00:50:58;101279.63;;;7.64;100.00
46718;BME280;32448;44.960;-0.698;2022-11-21T00:53:27;101269.06;;;7.59;100.00
46718;BME280;32448;44.960;-0.698;2022-11-21T00:55:55;101279.56;;;7.62;100.00
46718;BME280;32448;44.960;-0.698;2022-11-21T00:58:22;101269.94;;;7.60;100.00
46718;BME280;32448;44.960;-0.698;2022-11-21T01:00:49;101268.22;;;7.60;100.00
46718;BME280;32448;44.960;-0.698;2022-11-21T01:03:16;101261.97;;;7.55;100.00
46718;BME280;32448;44.960;-0.698;2022-11-21T01:05:44;101250.03;;;7.60;100.00
46718;BME280;32448;44.960;-0.698;2022-11-21T01:08:11;101250.28;;;7.68;100.00
46718;BME280;32448;44.960;-0.698;2022-11-21T01:10:38;101230.25;;;7.65;100.00
46718;BME280;32448;44.960;-0.698;2022-11-21T01:13:06;101218.81;;;7.60;100.00
46718;BME280;32448;44.960;-0.698;2022-11-21T01:15:33;101216.28;;;7.63;100.00
46718;BME280;32448;44.960;-0.698;2022-11-21T01:18:01;101212.97;;;7.67;100.00
46718;BME280;32448;44.960;-0.698;2022-11-21T01:20:28;101206.78;;;7.64;100.00
46718;BME280;32448;44.960;-0.698;2022-11-21T01:22:55;101197.31;;;7.66;100.00
46718;BME280;32448;44.960;-0.698;2022-11-21T01:25:22;101194.00;;;7.70;100.00
46718;BME280;32448;44.960;-0.698;2022-11-21T01:27:50;101178.09;;;7.62;100.00
46718;BME280;32448;44.960;-0.698;2022-11-21T01:30:17;101176.44;;;7.64;100.00
46718;BME280;32448;44.960;-0.698;2022-11-21T01:32:47;101165.00;;;7.59;100.00
46718;BME280;32448;44.960;-0.698;2022-11-21T01:35:16;101157.19;;;7.59;100.00
46718;BME280;32448;44.960;-0.698;2022-11-21T01:37:48;101147.81;;;7.64;100.00
46718;BME280;32448;44.960;-0.698;2022-11-21T01:40:15;101130.44;;;7.63;100.00
46718;BME280;32448;44.960;-0.698;2022-11-21T01:43:05;101142.84;;;7.71;100.00
46718;BME280;32448;44.960;-0.698;2022-11-21T01:48:20;101114.81;;;7.62;100.00
46718;BME280;32448;44.960;-0.698;2022-11-21T01:50:48;101112.47;;;7.70;100.00
46718;BME280;32448;44.960;-0.698;2022-11-21T01:53:16;101090.72;;;7.67;100.00
46718;BME280;32448;44.960;-0.698;2022-11-21T01:55:43;101089.94;;;7.70;100.00
46718;BME280;32448;44.960;-0.698;2022-11-21T01:58:11;101078.75;;;7.73;100.00
46718;BME280;32448;44.960;-0.698;2022-11-21T02:00:39;101071.13;;;7.79;100.00
46718;BME280;32448;44.960;-0.698;2022-11-21T02:03:14;101055.34;;;7.74;100.00
46718;BME280;32448;44.960;-0.698;2022-11-21T02:05:45;101036.38;;;7.77;100.00
46718;BME280;32448;44.960;-0.698;2022-11-21T02:08:17;101033.94;;;7.81;100.00
46718;BME280;32448;44.960;-0.698;2022-11-21T02:11:05;101024.19;;;7.76;100.00
46718;BME280;32448;44.960;-0.698;2022-11-21T02:13:35;101025.28;;;7.82;100.00
46718;BME280;32448;44.960;-0.698;2022-11-21T02:16:03;101024.28;;;7.79;100.00
46718;BME280;32448;44.960;-0.698;2022-11-21T02:18:30;101019.09;;;7.79;100.00
46718;BME280;32448;44.960;-0.698;2022-11-21T02:21:36;101017.66;;;7.88;100.00
46718;BME280;32448;44.960;-0.698;2022-11-21T02:24:19;101001.09;;;7.86;100.00
46718;BME280;32448;44.960;-0.698;2022-11-21T02:26:50;100997.38;;;7.78;100.00
46718;BME280;32448;44.960;-0.698;2022-11-21T02:29:17;100982.47;;;7.73;100.00
46718;BME280;32448;44.960;-0.698;2022-11-21T02:31:44;100975.13;;;7.88;100.00
46718;BME280;32448;44.960;-0.698;2022-11-21T02:34:12;100971.53;;;7.83;100.00
46718;BME280;32448;44.960;-0.698;2022-11-21T02:36:42;100967.44;;;7.91;100.00
46718;BME280;32448;44.960;-0.698;2022-11-21T02:39:21;100958.91;;;7.95;100.00
46718;BME280;32448;44.960;-0.698;2022-11-21T02:44:53;100943.41;;;7.99;100.00
46718;BME280;32448;44.960;-0.698;2022-11-21T02:47:22;100938.91;;;7.94;100.00
46718;BME280;32448;44.960;-0.698;2022-11-21T02:52:30;100934.03;;;8.04;100.00
46718;BME280;32448;44.960;-0.698;2022-11-21T02:54:58;100928.75;;;8.03;100.00
46718;BME280;32448;44.960;-0.698;2022-11-21T02:57:25;100926.31;;;8.09;100.00
46718;BME280;32448;44.960;-0.698;2022-11-21T02:59:52;100918.78;;;8.18;100.00
46718;BME280;32448;44.960;-0.698;2022-11-21T03:02:19;100905.69;;;8.15;100.00
46718;BME280;32448;44.960;-0.698;2022-11-21T03:04:47;100896.13;;;8.14;100.00
46718;BME280;32448;44.960;-0.698;2022-11-21T03:07:14;100889.97;;;8.12;100.00
46718;BME280;32448;44.960;-0.698;2022-11-21T03:09:41;100888.25;;;8.13;100.00
46718;BME280;32448;44.960;-0.698;2022-11-21T03:12:09;100846.25;;;8.00;100.00
46718;BME280;32448;44.960;-0.698;2022-11-21T03:14:36;100857.19;;;8.19;100.00
46718;BME280;32448;44.960;-0.698;2022-11-21T03:17:04;100857.41;;;8.26;100.00
46718;BME280;32448;44.960;-0.698;2022-11-21T03:19:31;100852.63;;;8.42;100.00
46718;BME280;32448;44.960;-0.698;2022-11-21T03:21:58;100851.44;;;8.30;100.00
46718;BME280;32448;44.960;-0.698;2022-11-21T03:24:26;100852.31;;;8.31;100.00
46718;BME280;32448;44.960;-0.698;2022-11-21T03:26:53;100847.06;;;8.29;100.00
46718;BME280;32448;44.960;-0.698;2022-11-21T03:29:21;100841.22;;;8.36;100.00
46718;BME280;32448;44.960;-0.698;2022-11-21T03:31:48;100831.13;;;8.49;100.00
46718;BME280;32448;44.960;-0.698;2022-11-21T03:34:16;100825.84;;;8.46;100.00
46718;BME280;32448;44.960;-0.698;2022-11-21T03:36:43;100817.78;;;8.36;100.00
46718;BME280;32448;44.960;-0.698;2022-11-21T03:39:10;100800.50;;;8.40;100.00
46718;BME280;32448;44.960;-0.698;2022-11-21T03:41:37;100798.94;;;8.47;100.00
46718;BME280;32448;44.960;-0.698;2022-11-21T03:44:07;100788.03;;;8.61;100.00
46718;BME280;32448;44.960;-0.698;2022-11-21T03:46:43;100767.13;;;8.58;100.00
46718;BME280;32448;44.960;-0.698;2022-11-21T03:49:11;100773.88;;;8.50;100.00
46718;BME280;32448;44.960;-0.698;2022-11-21T03:51:39;100745.13;;;8.47;100.00
46718;BME280;32448;44.960;-0.698;2022-11-21T03:54:06;100751.28;;;8.49;100.00
46718;BME280;32448;44.960;-0.698;2022-11-21T03:56:34;100760.38;;;8.66;100.00
46718;BME280;32448;44.960;-0.698;2022-11-21T03:59:02;100753.16;;;8.56;100.00
46718;BME280;32448;44.960;-0.698;2022-11-21T04:01:29;100754.91;;;8.56;100.00
46718;BME280;32448;44.960;-0.698;2022-11-21T04:04:03;100745.47;;;8.61;100.00
46718;BME280;32448;44.960;-0.698;2022-11-21T04:06:31;100738.56;;;8.63;100.00
46718;BME280;32448;44.960;-0.698;2022-11-21T04:09:00;100729.91;;;8.64;100.00
46718;BME280;32448;44.960;-0.698;2022-11-21T04:11:28;100730.81;;;8.66;100.00
46718;BME280;32448;44.960;-0.698;2022-11-21T04:13:55;100737.03;;;8.71;100.00
46718;BME280;32448;44.960;-0.698;2022-11-21T04:16:22;100723.19;;;8.73;100.00
46718;BME280;32448;44.960;-0.698;2022-11-21T04:18:49;100723.22;;;8.75;100.00
46718;BME280;32448;44.960;-0.698;2022-11-21T04:21:17;100704.94;;;8.72;100.00
46718;BME280;32448;44.960;-0.698;2022-11-21T04:23:44;100708.50;;;8.77;100.00
46718;BME280;32448;44.960;-0.698;2022-11-21T04:26:11;100693.03;;;8.83;100.00
46718;BME280;32448;44.960;-0.698;2022-11-21T04:28:39;100688.63;;;8.81;100.00
46718;BME280;32448;44.960;-0.698;2022-11-21T04:31:08;100676.31;;;8.75;100.00
46718;BME280;32448;44.960;-0.698;2022-11-21T04:33:37;100690.50;;;8.88;100.00
46718;BME280;32448;44.960;-0.698;2022-11-21T04:36:07;100684.28;;;8.81;100.00
46718;BME280;32448;44.960;-0.698;2022-11-21T04:38:35;100667.72;;;8.79;100.00
46718;BME280;32448;44.960;-0.698;2022-11-21T04:41:02;100655.66;;;8.83;100.00
46718;BME280;32448;44.960;-0.698;2022-11-21T04:43:30;100652.22;;;8.85;100.00
46718;BME280;32448;44.960;-0.698;2022-11-21T04:45:57;100640.88;;;8.82;100.00
46718;BME280;32448;44.960;-0.698;2022-11-21T04:48:25;100639.28;;;8.90;100.00
46718;BME280;32448;44.960;-0.698;2022-11-21T04:50:52;100634.16;;;8.93;100.00
46718;BME280;32448;44.960;-0.698;2022-11-21T04:53:19;100628.91;;;8.91;100.00
46718;BME280;32448;44.960;-0.698;2022-11-21T04:55:47;100619.53;;;9.01;100.00
46718;BME280;32448;44.960;-0.698;2022-11-21T04:58:15;100613.44;;;9.00;100.00
46718;BME280;32448;44.960;-0.698;2022-11-21T05:00:42;100612.59;;;9.01;100.00
46718;BME280;32448;44.960;-0.698;2022-11-21T05:03:09;100601.19;;;8.96;100.00
46718;BME280;32448;44.960;-0.698;2022-11-21T05:05:36;100578.78;;;9.04;100.00
46718;BME280;32448;44.960;-0.698;2022-11-21T05:08:04;100571.00;;;9.07;100.00
46718;BME280;32448;44.960;-0.698;2022-11-21T05:10:31;100573.56;;;9.06;100.00
46718;BME280;32448;44.960;-0.698;2022-11-21T05:13:18;100568.47;;;9.10;100.00
46718;BME280;32448;44.960;-0.698;2022-11-21T05:15:55;100572.00;;;9.12;100.00
46718;BME280;32448;44.960;-0.698;2022-11-21T05:18:22;100563.19;;;9.07;100.00
46718;BME280;32448;44.960;-0.698;2022-11-21T05:20:50;100556.44;;;9.19;100.00
46718;BME280;32448;44.960;-0.698;2022-11-21T05:23:17;100546.97;;;9.22;100.00
46718;BME280;32448;44.960;-0.698;2022-11-21T05:25:44;100549.44;;;9.15;100.00
46718;BME280;32448;44.960;-0.698;2022-11-21T05:28:12;100537.28;;;9.15;100.00
46718;BME280;32448;44.960;-0.698;2022-11-21T05:30:39;100544.25;;;9.16;100.00
46718;BME280;32448;44.960;-0.698;2022-11-21T05:33:06;100533.06;;;9.23;100.00
46718;BME280;32448;44.960;-0.698;2022-11-21T05:35:33;100525.03;;;9.11;100.00
46718;BME280;32448;44.960;-0.698;2022-11-21T05:38:08;100513.91;;;9.21;100.00
46718;BME280;32448;44.960;-0.698;2022-11-21T05:40:35;100509.59;;;9.23;100.00
46718;BME280;32448;44.960;-0.698;2022-11-21T05:43:03;100507.78;;;9.19;100.00
46718;BME280;32448;44.960;-0.698;2022-11-21T05:45:49;100502.47;;;9.13;100.00
46718;BME280;32448;44.960;-0.698;2022-11-21T05:48:17;100484.19;;;9.11;100.00
46718;BME280;32448;44.960;-0.698;2022-11-21T05:50:47;100477.34;;;9.17;100.00
46718;BME280;32448;44.960;-0.698;2022-11-21T05:53:16;100480.81;;;9.19;100.00
46718;BME280;32448;44.960;-0.698;2022-11-21T05:55:45;100469.47;;;9.13;100.00
46718;BME280;32448;44.960;-0.698;2022-11-21T05:58:14;100469.56;;;9.20;100.00
46718;BME280;32448;44.960;-0.698;2022-11-21T06:00:42;100454.75;;;9.19;100.00
46718;BME280;32448;44.960;-0.698;2022-11-21T06:03:10;100458.25;;;9.19;100.00
46718;BME280;32448;44.960;-0.698;2022-11-21T06:05:57;100463.53;;;9.22;100.00
46718;BME280;32448;44.960;-0.698;2022-11-21T06:08:30;100455.69;;;9.22;100.00
46718;BME280;32448;44.960;-0.698;2022-11-21T06:11:04;100426.19;;;9.25;100.00
46718;BME280;32448;44.960;-0.698;2022-11-21T06:13:33;100418.25;;;9.19;100.00
46718;BME280;32448;44.960;-0.698;2022-11-21T06:16:11;100401.75;;;9.20;100.00
46718;BME280;32448;44.960;-0.698;2022-11-21T06:18:43;100398.31;;;9.22;100.00
46718;BME280;32448;44.960;-0.698;2022-11-21T06:21:16;100393.13;;;9.24;100.00
46718;BME280;32448;44.960;-0.698;2022-11-21T06:23:44;100377.38;;;9.18;100.00
46718;BME280;32448;44.960;-0.698;2022-11-21T06:26:14;100365.25;;;9.20;100.00
46718;BME280;32448;44.960;-0.698;2022-11-21T06:28:43;100369.69;;;9.25;100.00
46718;BME280;32448;44.960;-0.698;2022-11-21T06:31:22;100352.38;;;9.30;100.00
46718;BME280;32448;44.960;-0.698;2022-11-21T06:33:54;100349.66;;;9.23;100.00
46718;BME280;32448;44.960;-0.698;2022-11-21T06:36:22;100337.59;;;9.31;100.00
46718;BME280;32448;44.960;-0.698;2022-11-21T06:38:52;100340.16;;;9.26;100.00
46718;BME280;32448;44.960;-0.698;2022-11-21T06:41:24;100308.75;;;9.20;100.00
46718;BME280;32448;44.960;-0.698;2022-11-21T06:43:52;100296.69;;;9.28;100.00
46718;BME280;32448;44.960;-0.698;2022-11-21T06:46:19;100287.28;;;9.36;100.00
46718;BME280;32448;44.960;-0.698;2022-11-21T06:48:46;100288.91;;;9.30;100.00
46718;BME280;32448;44.960;-0.698;2022-11-21T06:51:19;100284.59;;;9.32;100.00
46718;BME280;32448;44.960;-0.698;2022-11-21T06:53:51;100295.16;;;9.41;100.00
46718;BME280;32448;44.960;-0.698;2022-11-21T06:56:26;100249.56;;;9.13;100.00
46718;BME280;32448;44.960;-0.698;2022-11-21T06:58:54;100257.63;;;9.31;100.00
46718;BME280;32448;44.960;-0.698;2022-11-21T07:01:22;100267.13;;;9.25;100.00
46718;BME280;32448;44.960;-0.698;2022-11-21T07:03:49;100257.66;;;9.33;100.00
46718;BME280;32448;44.960;-0.698;2022-11-21T07:06:17;100228.06;;;9.31;100.00
46718;BME280;32448;44.960;-0.698;2022-11-21T07:08:44;100211.66;;;9.36;100.00
46718;BME280;32448;44.960;-0.698;2022-11-21T07:11:12;100221.34;;;9.46;100.00
46718;BME280;32448;44.960;-0.698;2022-11-21T07:13:55;100222.16;;;9.44;100.00
46718;BME280;32448;44.960;-0.698;2022-11-21T07:16:22;100204.81;;;9.46;100.00
46718;BME280;32448;44.960;-0.698;2022-11-21T07:18:52;100209.94;;;9.41;100.00
46718;BME280;32448;44.960;-0.698;2022-11-21T07:21:19;100205.44;;;9.27;100.00
46718;BME280;32448;44.960;-0.698;2022-11-21T07:23:46;100195.94;;;9.32;100.00
46718;BME280;32448;44.960;-0.698;2022-11-21T07:26:14;100191.59;;;9.34;100.00
46718;BME280;32448;44.960;-0.698;2022-11-21T07:28:42;100162.84;;;9.26;100.00
46718;BME280;32448;44.960;-0.698;2022-11-21T07:31:09;100168.97;;;9.31;100.00
46718;BME280;32448;44.960;-0.698;2022-11-21T07:33:40;100153.31;;;9.30;100.00
46718;BME280;32448;44.960;-0.698;2022-11-21T07:36:10;100152.56;;;9.38;100.00
46718;BME280;32448;44.960;-0.698;2022-11-21T07:38:38;100152.56;;;9.41;100.00
46718;BME280;32448;44.960;-0.698;2022-11-21T07:41:08;100149.97;;;9.41;100.00
46718;BME280;32448;44.960;-0.698;2022-11-21T07:43:35;100147.44;;;9.50;100.00
46718;BME280;32448;44.960;-0.698;2022-11-21T07:46:03;100147.50;;;9.54;100.00
46718;BME280;32448;44.960;-0.698;2022-11-21T07:48:30;100113.44;;;9.38;100.00
46718;BME280;32448;44.960;-0.698;2022-11-21T07:50:58;100096.88;;;9.36;100.00
46718;BME280;32448;44.960;-0.698;2022-11-21T07:53:25;100075.09;;;9.31;100.00
46718;BME280;32448;44.960;-0.698;2022-11-21T07:55:52;100087.28;;;9.34;100.00
46718;BME280;32448;44.960;-0.698;2022-11-21T07:58:20;100061.22;;;9.35;100.00
46718;BME280;32448;44.960;-0.698;2022-11-21T08:00:47;100074.38;;;9.44;100.00
46718;BME280;32448;44.960;-0.698;2022-11-21T08:03:15;100082.97;;;9.39;100.00
46718;BME280;32448;44.960;-0.698;2022-11-21T08:05:43;100066.38;;;9.31;100.00
46718;BME280;32448;44.960;-0.698;2022-11-21T08:08:12;100087.41;;;9.44;100.00
46718;BME280;32448;44.960;-0.698;2022-11-21T08:10:44;100087.38;;;9.43;100.00
46718;BME280;32448;44.960;-0.698;2022-11-21T08:13:12;100093.47;;;9.43;100.00
46718;BME280;32448;44.960;-0.698;2022-11-21T08:15:40;100094.34;;;9.42;100.00
46718;BME280;32448;44.960;-0.698;2022-11-21T08:20:35;100062.13;;;9.40;100.00
46718;BME280;32448;44.960;-0.698;2022-11-21T08:23:03;100059.56;;;9.42;100.00
46718;BME280;32448;44.960;-0.698;2022-11-21T08:25:30;100042.00;;;9.24;100.00
46718;BME280;32448;44.960;-0.698;2022-11-21T08:27:58;100077.88;;;9.48;100.00
46718;BME280;32448;44.960;-0.698;2022-11-21T08:30:26;100077.88;;;9.46;100.00
46718;BME280;32448;44.960;-0.698;2022-11-21T08:32:53;100070.00;;;9.43;100.00
46718;BME280;32448;44.960;-0.698;2022-11-21T08:35:20;100073.53;;;9.48;100.00
46718;BME280;32448;44.960;-0.698;2022-11-21T08:37:47;100078.78;;;9.52;100.00
46718;BME280;32448;44.960;-0.698;2022-11-21T08:40:14;100083.16;;;9.54;100.00
46718;BME280;32448;44.960;-0.698;2022-11-21T08:42:42;100069.25;;;9.55;100.00
46718;BME280;32448;44.960;-0.698;2022-11-21T08:45:09;100067.59;;;9.63;100.00
46718;BME280;32448;44.960;-0.698;2022-11-21T08:47:37;100064.13;;;9.66;100.00
46718;BME280;32448;44.960;-0.698;2022-11-21T08:50:04;100058.78;;;9.54;100.00
46718;BME280;32448;44.960;-0.698;2022-11-21T08:52:34;100079.84;;;9.73;100.00
46718;BME280;32448;44.960;-0.698;2022-11-21T08:55:02;100078.09;;;9.71;100.00
46718;BME280;32448;44.960;-0.698;2022-11-21T08:57:29;100068.44;;;9.61;100.00
46718;BME280;32448;44.960;-0.698;2022-11-21T08:59:57;100067.66;;;9.69;100.00
46718;BME280;32448;44.960;-0.698;2022-11-21T09:02:24;100055.47;;;9.73;100.00
46718;BME280;32448;44.960;-0.698;2022-11-21T09:04:51;100058.19;;;9.83;100.00
46718;BME280;32448;44.960;-0.698;2022-11-21T09:07:19;100038.19;;;9.84;100.00
46718;BME280;32448;44.960;-0.698;2022-11-21T09:09:46;100021.63;;;9.79;100.00
46718;BME280;32448;44.960;-0.698;2022-11-21T09:12:13;100017.31;;;9.82;100.00
46718;BME280;32448;44.960;-0.698;2022-11-21T09:14:41;100016.44;;;9.83;100.00
46718;BME280;32448;44.960;-0.698;2022-11-21T09:17:27;100016.53;;;9.96;100.00
46718;BME280;32448;44.960;-0.698;2022-11-21T09:20:13;100006.09;;;9.99;100.00
46718;BME280;32448;44.960;-0.698;2022-11-21T09:22:41;100003.53;;;10.06;100.00
46718;BME280;32448;44.960;-0.698;2022-11-21T09:25:08;100000.22;;;10.23;100.00
46718;BME280;32448;44.960;-0.698;2022-11-21T09:27:35;100011.56;;;10.29;100.00
46718;BME280;32448;44.960;-0.698;2022-11-21T09:30:03;99997.66;;;10.33;100.00
46718;BME280;32448;44.960;-0.698;2022-11-21T09:32:30;99988.09;;;10.40;100.00
46718;BME280;32448;44.960;-0.698;2022-11-21T09:34:58;99986.38;;;10.37;100.00
46718;BME280;32448;44.960;-0.698;2022-11-21T09:37:26;99974.19;;;10.41;100.00
46718;BME280;32448;44.960;-0.698;2022-11-21T09:39:53;99968.13;;;10.51;100.00
46718;BME280;32448;44.960;-0.698;2022-11-21T09:45:30;99981.28;;;10.68;100.00
46718;BME280;32448;44.960;-0.698;2022-11-21T09:48:03;99950.75;;;10.57;100.00
46718;BME280;32448;44.960;-0.698;2022-11-21T09:50:37;99949.03;;;10.72;100.00
46718;BME280;32448;44.960;-0.698;2022-11-21T09:53:13;99966.50;;;10.86;100.00
46718;BME280;32448;44.960;-0.698;2022-11-21T09:55:47;99963.94;;;10.91;100.00
46718;BME280;32448;44.960;-0.698;2022-11-21T10:00:58;99967.44;;;11.11;100.00
46718;BME280;32448;44.960;-0.698;2022-11-21T10:03:40;99966.59;;;11.20;100.00
46718;BME280;32448;44.960;-0.698;2022-11-21T10:06:23;99946.53;;;11.14;100.00
46718;BME280;32448;44.960;-0.698;2022-11-21T10:11:59;99983.16;;;11.49;100.00
46718;BME280;32448;44.960;-0.698;2022-11-21T10:26:03;99982.31;;;11.97;100.00
46718;BME280;32448;44.960;-0.698;2022-11-21T10:28:47;99978.81;;;12.08;100.00
46718;BME280;32448;44.960;-0.698;2022-11-21T10:31:17;99969.19;;;12.19;100.00
46718;BME280;32448;44.960;-0.698;2022-11-21T10:33:45;99951.69;;;12.36;100.00
46718;BME280;32448;44.960;-0.698;2022-11-21T10:38:50;99940.19;;;12.64;100.00
46718;BME280;32448;44.960;-0.698;2022-11-21T10:41:36;99956.72;;;12.79;100.00
46718;BME280;32448;44.960;-0.698;2022-11-21T10:44:26;99932.19;;;12.84;100.00
46718;BME280;32448;44.960;-0.698;2022-11-21T10:47:24;99920.84;;;12.84;100.00
46718;BME280;32448;44.960;-0.698;2022-11-21T10:56:02;99902.38;;;13.02;100.00
46718;BME280;32448;44.960;-0.698;2022-11-21T10:58:52;99878.81;;;12.96;100.00
46718;BME280;32448;44.960;-0.698;2022-11-21T11:01:33;99874.34;;;13.05;100.00
46718;BME280;32448;44.960;-0.698;2022-11-21T11:04:16;99862.06;;;13.15;100.00
46718;BME280;32448;44.960;-0.698;2022-11-21T11:07:25;99873.41;;;13.20;100.00
46718;BME280;32448;44.960;-0.698;2022-11-21T11:10:21;99867.28;;;13.21;100.00
46718;BME280;32448;44.960;-0.698;2022-11-21T11:12:54;99879.47;;;13.27;100.00
46718;BME280;32448;44.960;-0.698;2022-11-21T11:16:04;99873.41;;;13.20;100.00
46718;BME280;32448;44.960;-0.698;2022-11-21T11:18:33;99895.19;;;13.31;100.00
46718;BME280;32448;44.960;-0.698;2022-11-21T11:21:22;99872.47;;;13.26;100.00
46718;BME280;32448;44.960;-0.698;2022-11-21T11:23:53;99868.00;;;13.38;100.00
46718;BME280;32448;44.960;-0.698;2022-11-21T11:26:24;99862.81;;;13.34;100.00
46718;BME280;32448;44.960;-0.698;2022-11-21T11:29:07;99875.03;;;13.36;100.00
46718;BME280;32448;44.960;-0.698;2022-11-21T11:31:43;99866.31;;;13.31;100.00
46718;BME280;32448;44.960;-0.698;2022-11-21T11:34:13;99840.09;;;13.28;100.00
46718;BME280;32448;44.960;-0.698;2022-11-21T11:36:47;99873.22;;;13.43;100.00
46718;BME280;32448;44.960;-0.698;2022-11-21T11:48:08;99865.53;;;13.19;100.00
46718;BME280;32448;44.960;-0.698;2022-11-21T11:50:49;99876.00;;;13.23;100.00
46718;BME280;32448;44.960;-0.698;2022-11-21T11:53:19;99845.47;;;13.13;100.00
46718;BME280;32448;44.960;-0.698;2022-11-21T11:55:54;99849.84;;;13.12;100.00
46718;BME280;32448;44.960;-0.698;2022-11-21T12:00:57;99849.84;;;13.11;100.00
46718;BME280;32448;44.960;-0.698;2022-11-21T12:06:28;99846.44;;;12.98;100.00
46718;BME280;32448;44.960;-0.698;2022-11-21T12:09:55;99829.81;;;12.99;100.00
46718;BME280;32448;44.960;-0.698;2022-11-21T12:12:35;99827.13;;;13.04;100.00
46718;BME280;32448;44.960;-0.698;2022-11-21T12:15:15;99809.72;;;12.97;100.00
46718;BME280;32448;44.960;-0.698;2022-11-21T12:18:38;99793.97;;;13.00;100.00
46718;BME280;32448;44.960;-0.698;2022-11-21T12:23:53;99761.75;;;12.84;100.00
46718;BME280;32448;44.960;-0.698;2022-11-21T12:32:22;99809.72;;;12.98;100.00
46718;BME280;32448;44.960;-0.698;2022-11-21T12:46:24;99853.72;;;12.57;100.00
46718;BME280;32448;44.960;-0.698;2022-11-21T12:52:03;99850.31;;;12.43;100.00
46718;BME280;32448;44.960;-0.698;2022-11-21T13:00:41;99846.91;;;12.25;100.00
46718;BME280;32448;44.960;-0.698;2022-11-21T13:06:02;99853.91;;;12.16;100.00
46718;BME280;32448;44.960;-0.698;2022-11-21T13:08:34;99865.25;;;12.21;100.00
46718;BME280;32448;44.960;-0.698;2022-11-21T13:11:06;99864.44;;;12.14;100.00
46718;BME280;32448;44.960;-0.698;2022-11-21T13:14:03;99866.19;;;12.06;100.00
46718;BME280;32448;44.960;-0.698;2022-11-21T13:16:35;99860.97;;;12.00;100.00
46718;BME280;32448;44.960;-0.698;2022-11-21T13:19:19;99868.84;;;11.95;100.00
46718;BME280;32448;44.960;-0.698;2022-11-21T13:21:50;99883.66;;;11.98;100.00
46718;BME280;32448;44.960;-0.698;2022-11-21T13:24:53;99901.97;;;12.06;100.00
46718;BME280;32448;44.960;-0.698;2022-11-21T13:27:42;99877.59;;;11.88;100.00
46718;BME280;32448;44.960;-0.698;2022-11-21T13:32:42;99903.78;;;11.90;100.00
46718;BME280;32448;44.960;-0.698;2022-11-21T13:38:08;99891.56;;;11.87;100.00
46718;BME280;32448;44.960;-0.698;2022-11-21T13:40:38;99847.91;;;11.73;100.00
46718;BME280;32448;44.960;-0.698;2022-11-21T13:45:59;99835.69;;;11.90;100.00
46718;BME280;32448;44.960;-0.698;2022-11-21T13:48:33;99833.97;;;11.83;100.00
46718;BME280;32448;44.960;-0.698;2022-11-21T13:57:38;99864.50;;;11.91;100.00
46718;BME280;32448;44.960;-0.698;2022-11-21T14:00:21;99909.03;;;11.93;100.00
46718;BME280;32448;44.960;-0.698;2022-11-21T14:03:12;99929.09;;;11.88;100.00
46718;BME280;32448;44.960;-0.698;2022-11-21T14:05:59;99888.94;;;11.72;100.00
46718;BME280;32448;44.960;-0.698;2022-11-21T14:08:34;99910.75;;;11.83;100.00
46718;BME280;32448;44.960;-0.698;2022-11-21T14:11:28;99906.38;;;11.99;100.00
46718;BME280;32448;44.960;-0.698;2022-11-21T14:13:58;99916.88;;;11.91;100.00
46718;BME280;32448;44.960;-0.698;2022-11-21T14:16:47;99939.59;;;11.76;100.00
46718;BME280;32448;44.960;-0.698;2022-11-21T14:19:18;99950.91;;;11.67;100.00
46718;BME280;32448;44.960;-0.698;2022-11-21T14:21:46;99973.56;;;11.73;100.00
46718;BME280;32448;44.960;-0.698;2022-11-21T14:24:17;99957.88;;;11.63;100.00
46718;BME280;32448;44.960;-0.698;2022-11-21T14:26:50;99936.94;;;11.53;100.00
46718;BME280;32448;44.960;-0.698;2022-11-21T14:29:30;99938.69;;;11.42;100.00
46718;BME280;32448;44.960;-0.698;2022-11-21T14:32:03;99913.41;;;11.42;100.00
46718;BME280;32448;44.960;-0.698;2022-11-21T14:34:31;99895.97;;;11.26;100.00
46718;BME280;32448;44.960;-0.698;2022-11-21T14:37:02;99897.69;;;11.18;100.00
46718;BME280;32448;44.960;-0.698;2022-11-21T14:39:32;99922.13;;;11.35;100.00
46718;BME280;32448;44.960;-0.698;2022-11-21T14:42:12;99912.53;;;11.31;100.00
46718;BME280;32448;44.960;-0.698;2022-11-21T14:44:41;99929.09;;;11.27;100.00